createdAt,value
2022-09-15T00:01:40.480Z,22.9
2022-09-15T00:03:40.250Z,23.8
2022-09-15T00:05:40.498Z,22.8
2022-09-15T00:07:40.367Z,24.7
2022-09-15T00:09:40.467Z,23.7
2022-09-15T00:11:40.613Z,25.1
2022-09-15T00:13:41.378Z,23.8
2022-09-15T00:15:41.058Z,23.3
2022-09-15T00:17:42.017Z,21.9
2022-09-15T00:19:41.437Z,22.8
2022-09-15T00:21:41.823Z,22.4
2022-09-15T00:23:42.718Z,21.7
2022-09-15T00:25:43.589Z,21.8
2022-09-15T00:27:42.344Z,21.9
2022-09-15T00:29:42.720Z,22.6
2022-09-15T00:31:42.731Z,21
2022-09-15T00:33:46.445Z,21.5
2022-09-15T00:35:45.866Z,20.7
2022-09-15T00:37:43.307Z,20.4
2022-09-15T00:39:43.828Z,21.3
2022-09-15T00:41:43.875Z,20.2
2022-09-15T00:43:48.737Z,22.2
2022-09-15T00:45:44.298Z,21.4
2022-09-15T00:47:44.391Z,20.5
2022-09-15T00:49:46.591Z,21.2
2022-09-15T00:51:48.649Z,21.2
2022-09-15T00:53:46.883Z,20.7
2022-09-15T00:55:48.772Z,20.3
2022-09-15T00:57:48.926Z,20.9
2022-09-15T00:59:47.084Z,21.1
2022-09-15T01:01:47.097Z,20.3
2022-09-15T01:03:45.969Z,20.7
2022-09-15T01:05:51.554Z,19.7
2022-09-15T01:07:50.973Z,20.1
2022-09-15T01:09:51.363Z,19.7
2022-09-15T01:11:46.631Z,20.2
2022-09-15T01:13:46.663Z,20.5
2022-09-15T01:15:57.702Z,19.5
2022-09-15T01:18:03.210Z,19.7
2022-09-15T01:20:16.059Z,20.1
2022-09-15T01:21:55.620Z,19.5
2022-09-15T01:24:14.420Z,20.6
2022-09-15T01:26:12.572Z,20.1
2022-09-15T01:28:13.982Z,20.2
2022-09-15T01:30:01.473Z,21.2
2022-09-15T01:31:57.258Z,21.4
2022-09-15T01:33:57.276Z,21.9
2022-09-15T01:35:55.651Z,22
2022-09-15T01:37:54.745Z,22.1
2022-09-15T01:39:52.462Z,21.6
2022-09-15T01:41:52.647Z,22
2022-09-15T01:43:55.145Z,22.2
2022-09-15T01:45:51.824Z,22.6
2022-09-15T01:47:53.364Z,21.8
2022-09-15T01:49:54.740Z,20.5
2022-09-15T01:51:52.094Z,23
2022-09-15T01:53:52.676Z,21.5
2022-09-15T01:55:54.639Z,22
2022-09-15T01:57:50.758Z,22.4
2022-09-15T01:59:53.675Z,21.1
2022-09-15T02:01:57.874Z,22.5
2022-09-15T02:03:55.224Z,22.1
2022-09-15T02:05:55.146Z,21.3
2022-09-15T02:07:59.566Z,22.6
2022-09-15T02:09:58.889Z,22.1
2022-09-15T02:12:00.828Z,21.2
2022-09-15T02:13:58.828Z,20.2
2022-09-15T02:15:57.426Z,22.3
2022-09-15T02:17:52.572Z,20.6
2022-09-15T02:19:56.213Z,21.7
2022-09-15T02:21:58.556Z,21
2022-09-15T02:23:57.806Z,20.3
2022-09-15T02:25:57.256Z,18.7
2022-09-15T02:27:57.144Z,19.3
2022-09-15T02:29:57.827Z,18.7
2022-09-15T02:31:57.858Z,19.4
2022-09-15T02:33:58.121Z,19.8
2022-09-15T02:35:54.226Z,20.1
2022-09-15T02:37:55.831Z,18.7
2022-09-15T02:39:56.199Z,19.5
2022-09-15T02:41:54.408Z,19.3
2022-09-15T02:43:54.558Z,19.4
2022-09-15T02:45:55.096Z,18.4
2022-09-15T02:47:54.885Z,18
2022-09-15T02:49:55.417Z,18.5
2022-09-15T02:51:55.205Z,18.4
2022-09-15T02:53:55.401Z,17.7
2022-09-15T02:55:56.117Z,19.4
2022-09-15T02:57:55.782Z,19
2022-09-15T02:59:55.940Z,19.2
2022-09-15T03:01:56.052Z,18.6
2022-09-15T03:03:56.660Z,18.9
2022-09-15T03:05:56.447Z,19.6
2022-09-15T03:07:56.995Z,20.6
2022-09-15T03:09:56.795Z,19.6
2022-09-15T03:11:56.912Z,19.3
2022-09-15T03:13:58.863Z,19.6
2022-09-15T03:15:57.651Z,18.9
2022-09-15T03:17:57.510Z,18.8
2022-09-15T03:19:57.599Z,18.5
2022-09-15T03:21:57.894Z,19.4
2022-09-15T03:23:58.508Z,20.5
2022-09-15T03:25:58.536Z,19
2022-09-15T03:27:58.409Z,19
2022-09-15T03:29:58.566Z,17.5
2022-09-15T03:31:58.831Z,17.5
2022-09-15T03:33:58.962Z,17.5
2022-09-15T03:35:59.642Z,17
2022-09-15T03:37:59.263Z,17.1
2022-09-15T03:39:59.766Z,17.5
2022-09-15T03:41:59.689Z,18.4
2022-09-15T03:43:59.790Z,15.6
2022-09-15T03:46:01.581Z,16.9
2022-09-15T03:48:00.216Z,18.2
2022-09-15T03:50:00.325Z,17.3
2022-09-15T03:52:01.052Z,17.8
2022-09-15T03:54:00.699Z,16.7
2022-09-15T03:56:10.689Z,16.8
2022-09-15T03:58:01.063Z,17.1
2022-09-15T04:00:04.672Z,16.8
2022-09-15T04:02:01.566Z,17.3
2022-09-15T04:04:02.333Z,16.8
2022-09-15T04:06:01.807Z,15.4
2022-09-15T04:08:02.760Z,15.6
2022-09-15T04:10:02.232Z,15.9
2022-09-15T04:12:02.702Z,15.5
2022-09-15T04:14:02.505Z,18.5
2022-09-15T04:16:05.636Z,15.4
2022-09-15T04:18:03.131Z,15.5
2022-09-15T04:20:03.474Z,14.3
2022-09-15T04:22:03.213Z,14.2
2022-09-15T04:24:03.692Z,14.4
2022-09-15T04:26:05.577Z,13.6
2022-09-15T04:28:03.893Z,13.2
2022-09-15T04:30:05.469Z,12.1
2022-09-15T04:32:04.380Z,12.7
2022-09-15T04:34:04.281Z,11.4
2022-09-15T04:36:07.077Z,11.3
2022-09-15T04:38:04.789Z,12.1
2022-09-15T04:40:05.740Z,11.8
2022-09-15T04:42:05.495Z,12
2022-09-15T04:44:05.203Z,11.7
2022-09-15T04:46:06.208Z,11.4
2022-09-15T04:48:05.465Z,10.2
2022-09-15T04:50:06.223Z,10.1
2022-09-15T04:52:09.607Z,9.5
2022-09-15T04:54:06.015Z,10
2022-09-15T04:56:08.958Z,9.4
2022-09-15T04:58:06.877Z,9.4
2022-09-15T05:00:08.007Z,8.8
2022-09-15T05:02:06.884Z,8.9
2022-09-15T05:04:07.224Z,9.2
2022-09-15T05:06:10.408Z,9.3
2022-09-15T05:08:07.804Z,8.4
2022-09-15T05:10:08.287Z,7.7
2022-09-15T05:12:07.810Z,7.8
2022-09-15T05:14:09.089Z,8.2
2022-09-15T05:16:10.296Z,8.3
2022-09-15T05:18:08.292Z,7.9
2022-09-15T05:20:08.802Z,8
2022-09-15T05:22:08.664Z,7.1
2022-09-15T05:24:08.833Z,6.7
2022-09-15T05:26:12.324Z,7.1
2022-09-15T05:28:09.237Z,6.8
2022-09-15T05:30:35.523Z,7.1
2022-09-15T05:32:09.704Z,7.4
2022-09-15T05:34:10.431Z,6.9
2022-09-15T05:36:10.075Z,7.1
2022-09-15T05:38:10.243Z,7
2022-09-15T05:40:10.789Z,6.1
2022-09-15T05:42:10.634Z,5.6
2022-09-15T05:44:10.878Z,5.8
2022-09-15T05:46:11.884Z,5.9
2022-09-15T05:48:12.179Z,5.2
2022-09-15T05:50:11.542Z,6
2022-09-15T05:52:11.762Z,5.8
2022-09-15T05:54:11.893Z,5.4
2022-09-15T05:56:13.978Z,5.8
2022-09-15T05:58:13.243Z,6.5
2022-09-15T06:00:13.453Z,6.1
2022-09-15T06:02:12.802Z,7.4
2022-09-15T06:04:13.014Z,6.8
2022-09-15T06:06:13.458Z,7.1
2022-09-15T06:08:13.618Z,6.3
2022-09-15T06:10:13.630Z,5.2
2022-09-15T06:12:13.751Z,5.3
2022-09-15T06:14:14.142Z,5.7
2022-09-15T06:16:16.304Z,4.7
2022-09-15T06:18:14.417Z,5.1
2022-09-15T06:20:15.069Z,5.8
2022-09-15T06:22:14.895Z,5.4
2022-09-15T06:24:15.065Z,5.3
2022-09-15T06:26:17.285Z,6.2
2022-09-15T06:28:15.540Z,5.1
2022-09-15T06:30:17.071Z,5.2
2022-09-15T06:32:16.221Z,4.6
2022-09-15T06:34:16.553Z,4.9
2022-09-15T06:36:18.113Z,5.1
2022-09-15T06:38:16.757Z,4.7
2022-09-15T06:40:17.075Z,4.6
2022-09-15T06:42:17.235Z,4.5
2022-09-15T06:44:17.598Z,4.5
2022-09-15T06:46:19.907Z,4.7
2022-09-15T06:48:24.509Z,4.6
2022-09-15T06:50:18.159Z,4
2022-09-15T06:52:18.490Z,3.7
2022-09-15T06:54:18.715Z,4.2
2022-09-15T06:56:20.888Z,4.4
2022-09-15T06:58:19.134Z,4.5
2022-09-15T07:00:19.394Z,4.3
2022-09-15T07:02:19.561Z,4.4
2022-09-15T07:04:20.231Z,4.5
2022-09-15T07:06:20.820Z,4.3
2022-09-15T07:08:20.140Z,4.5
2022-09-15T07:10:20.343Z,4.5
2022-09-15T07:12:20.660Z,4.4
2022-09-15T07:14:20.774Z,4.5
2022-09-15T07:16:21.466Z,4.6
2022-09-15T07:18:21.767Z,4.6
2022-09-15T07:20:21.432Z,4.4
2022-09-15T07:22:23.570Z,4.6
2022-09-15T07:24:21.926Z,4.7
2022-09-15T07:26:24.052Z,4.4
2022-09-15T07:28:22.284Z,4.5
2022-09-15T07:30:22.750Z,3.9
2022-09-15T07:32:22.762Z,4.3
2022-09-15T07:34:23.032Z,5
2022-09-15T07:36:23.139Z,4.2
2022-09-15T07:38:23.399Z,4.7
2022-09-15T07:40:23.656Z,4.9
2022-09-15T07:42:23.776Z,4.7
2022-09-15T07:44:24.206Z,4.5
2022-09-15T07:46:26.375Z,4.9
2022-09-15T07:48:26.562Z,4.6
2022-09-15T07:50:24.799Z,5.4
2022-09-15T07:52:24.922Z,7.2
2022-09-15T07:54:25.131Z,6.2
2022-09-15T07:56:25.794Z,6.5
2022-09-15T07:58:25.677Z,8.2
2022-09-15T08:00:26.477Z,7.6
2022-09-15T08:02:26.222Z,9.7
2022-09-15T08:04:26.334Z,9.1
2022-09-15T08:06:26.752Z,6.3
2022-09-15T08:08:27.384Z,5.9
2022-09-15T08:10:27.053Z,5.4
2022-09-15T08:12:27.202Z,4.8
2022-09-15T08:14:27.360Z,4.1
2022-09-15T08:16:28.048Z,5.9
2022-09-15T08:18:27.957Z,5.4
2022-09-15T08:20:28.066Z,5.2
2022-09-15T08:22:28.382Z,5.4
2022-09-15T08:24:28.632Z,5.4
2022-09-15T08:26:29.119Z,5.4
2022-09-15T08:28:29.018Z,5.7
2022-09-15T08:30:29.584Z,4.9
2022-09-15T08:32:29.592Z,4.4
2022-09-15T08:34:29.871Z,4.4
2022-09-15T08:36:29.910Z,4.5
2022-09-15T08:38:30.364Z,4.2
2022-09-15T08:40:35.452Z,4.5
2022-09-15T08:42:30.799Z,4.4
2022-09-15T08:44:38.685Z,4.8
2022-09-15T08:46:37.025Z,7.2
2022-09-15T08:48:39.701Z,7.8
2022-09-15T08:50:37.507Z,5.6
2022-09-15T08:52:37.944Z,4.7
2022-09-15T08:54:33.193Z,4.5
2022-09-15T08:56:34.172Z,4.1
2022-09-15T08:58:35.748Z,4.5
2022-09-15T09:00:32.945Z,4.6
2022-09-15T09:02:49.246Z,4
2022-09-15T09:04:46.587Z,4.9
2022-09-15T09:06:40.765Z,4.8
2022-09-15T09:08:58.679Z,5
2022-09-15T09:10:45.375Z,4.4
2022-09-15T09:12:46.613Z,4.4
2022-09-15T09:14:46.767Z,4.3
2022-09-15T09:16:46.998Z,4.2
2022-09-15T09:18:51.554Z,4.1
2022-09-15T09:20:47.636Z,3.8
2022-09-15T09:22:40.071Z,3.9
2022-09-15T09:24:41.811Z,4.5
2022-09-15T09:26:36.139Z,4.7
2022-09-15T09:28:41.584Z,4.9
2022-09-15T09:30:36.918Z,4.5
2022-09-15T09:32:41.146Z,4.1
2022-09-15T09:34:43.112Z,4.6
2022-09-15T09:36:37.212Z,3.6
2022-09-15T09:38:40.757Z,3.9
2022-09-15T09:40:38.156Z,4.4
2022-09-15T09:42:38.702Z,4.3
2022-09-15T09:44:39.789Z,4.7
2022-09-15T09:46:38.480Z,4.7
2022-09-15T09:48:42.618Z,4.5
2022-09-15T09:50:41.246Z,4.5
2022-09-15T09:52:39.119Z,4.2
2022-09-15T09:54:39.378Z,3.6
2022-09-15T09:56:39.724Z,3.8
2022-09-15T09:58:40.005Z,3.8
2022-09-15T10:00:40.227Z,4
2022-09-15T10:02:46.390Z,3.7
2022-09-15T10:04:42.441Z,3.6
2022-09-15T10:06:41.044Z,3.7
2022-09-15T10:08:56.672Z,3.1
2022-09-15T10:10:49.536Z,3.6
2022-09-15T10:12:41.672Z,3.2
2022-09-15T10:14:42.622Z,3.9
2022-09-15T10:16:43.182Z,4
2022-09-15T10:18:42.537Z,4
2022-09-15T10:20:49.332Z,3.6
2022-09-15T10:22:43.546Z,3.7
2022-09-15T10:24:43.464Z,3.3
2022-09-15T10:26:44.032Z,3.1
2022-09-15T10:28:59.483Z,3.3
2022-09-15T10:30:59.546Z,3
2022-09-15T10:32:44.289Z,3.2
2022-09-15T10:34:44.509Z,3.1
2022-09-15T10:36:45.605Z,3.4
2022-09-15T10:38:47.514Z,3.7
2022-09-15T10:40:52.266Z,3.9
2022-09-15T10:42:51.279Z,3
2022-09-15T10:44:55.886Z,3
2022-09-15T10:46:58.477Z,3.2
2022-09-15T10:49:01.349Z,3.3
2022-09-15T10:50:54.901Z,3.4
2022-09-15T10:52:59.159Z,3.3
2022-09-15T10:55:03.397Z,3.2
2022-09-15T10:56:51.440Z,3.2
2022-09-15T10:58:57.481Z,3.2
2022-09-15T11:00:58.954Z,3.3
2022-09-15T11:03:12.408Z,3
2022-09-15T11:05:05.034Z,3.3
2022-09-15T11:06:57.853Z,3.3
2022-09-15T11:09:01.342Z,3.4
2022-09-15T11:11:02.748Z,3.3
2022-09-15T11:13:03.327Z,3.5
2022-09-15T11:15:06.415Z,3.4
2022-09-15T11:17:08.256Z,3.1
2022-09-15T11:19:05.972Z,3.2
2022-09-15T11:21:05.166Z,3.4
2022-09-15T11:22:58.702Z,3.2
2022-09-15T11:24:56.696Z,3.3
2022-09-15T11:26:56.064Z,3.3
2022-09-15T11:28:56.136Z,3.5
2022-09-15T11:30:58.074Z,3.5
2022-09-15T11:32:58.257Z,3.3
2022-09-15T11:35:00.007Z,3.6
2022-09-15T11:36:58.519Z,3.6
2022-09-15T11:38:58.445Z,3.5
2022-09-15T11:41:00.247Z,3.7
2022-09-15T11:42:59.843Z,3.6
2022-09-15T11:44:55.512Z,3.9
2022-09-15T11:47:02.064Z,4.1
2022-09-15T11:49:00.810Z,4.2
2022-09-15T11:50:58.982Z,4.1
2022-09-15T11:53:00.805Z,3.7
2022-09-15T12:01:03.037Z,3.6
2022-09-15T12:03:15.998Z,3.6
2022-09-15T12:05:06.063Z,3.6
2022-09-15T12:07:02.494Z,3.8
2022-09-15T12:08:59.808Z,4.1
2022-09-15T12:11:01.944Z,3.4
2022-09-15T12:13:00.177Z,3.5
2022-09-15T12:14:58.017Z,3.6
2022-09-15T12:16:58.968Z,3.4
2022-09-15T12:19:04.768Z,3.7
2022-09-15T12:21:05.283Z,3.2
2022-09-15T12:23:04.305Z,3.5
2022-09-15T12:25:04.759Z,3.8
2022-09-15T12:27:00.196Z,2.9
2022-09-15T12:29:01.480Z,3.2
2022-09-15T12:31:30.210Z,3.2
2022-09-15T12:33:30.247Z,3.3
2022-09-15T12:35:05.036Z,3.2
2022-09-15T12:37:09.197Z,3.1
2022-09-15T12:39:04.496Z,3.2
2022-09-15T12:41:01.841Z,3.3
2022-09-15T12:43:14.975Z,3.2
2022-09-15T12:45:06.113Z,3.2
2022-09-15T12:47:06.846Z,3.6
2022-09-15T12:49:03.297Z,3.3
2022-09-15T12:51:07.079Z,3.1
2022-09-15T12:53:16.578Z,3.3
2022-09-15T12:55:04.309Z,3.3
2022-09-15T12:57:06.207Z,3.3
2022-09-15T12:59:06.940Z,3
2022-09-15T13:01:34.071Z,3.6
2022-09-15T13:03:08.370Z,2.8
2022-09-15T13:05:10.714Z,3.3
2022-09-15T13:07:30.423Z,3
2022-09-15T13:09:25.933Z,3.2
2022-09-15T13:11:08.657Z,3.1
2022-09-15T13:13:23.795Z,3.4
2022-09-15T13:15:14.500Z,3.1
2022-09-15T13:17:13.405Z,3
2022-09-15T13:19:13.080Z,2.6
2022-09-15T13:21:13.216Z,4.1
2022-09-15T13:23:13.046Z,6.5
2022-09-15T13:25:17.080Z,4.3
2022-09-15T13:27:09.424Z,3
2022-09-15T13:29:12.754Z,3.4
2022-09-15T13:31:23.196Z,3
2022-09-15T13:33:22.109Z,3.3
2022-09-15T13:35:27.256Z,3.6
2022-09-15T13:39:24.606Z,3
2022-09-15T13:41:24.163Z,3.4
2022-09-15T13:43:40.032Z,3.1
2022-09-15T13:45:34.352Z,3.2
2022-09-15T13:47:23.095Z,3.1
2022-09-15T13:49:28.818Z,3.3
2022-09-15T13:51:18.271Z,3.1
2022-09-15T13:53:33.321Z,3.3
2022-09-15T13:55:17.418Z,3.3
2022-09-15T13:57:12.609Z,3.3
2022-09-15T13:59:17.475Z,3.5
2022-09-15T14:01:13.590Z,3.7
2022-09-15T14:03:17.673Z,3.8
2022-09-15T14:05:15.022Z,4
2022-09-15T14:07:22.605Z,3.5
2022-09-15T14:09:17.510Z,3.7
2022-09-15T14:11:21.254Z,3.8
2022-09-15T14:13:17.220Z,3.4
2022-09-15T14:15:19.797Z,3.9
2022-09-15T14:17:19.171Z,4.2
2022-09-15T14:19:29.181Z,4.1
2022-09-15T14:21:17.883Z,3.8
2022-09-15T14:23:16.180Z,3.5
2022-09-15T14:25:17.092Z,3.5
2022-09-15T14:27:21.961Z,3.6
2022-09-15T14:29:19.840Z,3.5
2022-09-15T14:31:26.398Z,3.7
2022-09-15T14:33:17.774Z,3.5
2022-09-15T14:35:21.266Z,3.6
2022-09-15T14:37:21.439Z,3.7
2022-09-15T14:39:21.486Z,3.7
2022-09-15T14:41:18.955Z,3.8
2022-09-15T14:43:24.276Z,3.2
2022-09-15T14:47:25.572Z,3.9
2022-09-15T14:49:21.274Z,3.5
2022-09-15T14:51:25.378Z,3.6
2022-09-15T14:52:19.639Z,3.6
2022-09-15T14:52:25.322Z,3.6
2022-09-15T14:53:24.558Z,3.8
2022-09-15T14:55:23.931Z,3.9
2022-09-15T14:57:25.601Z,4.2
2022-09-15T14:59:27.155Z,4.5
2022-09-15T15:01:34.578Z,4.4
2022-09-15T15:03:30.458Z,4.6
2022-09-15T15:05:26.543Z,5.5
2022-09-15T15:07:25.107Z,5.9
2022-09-15T15:09:27.588Z,6.5
2022-09-15T15:11:22.707Z,6.8
2022-09-15T15:13:22.729Z,5.6
2022-09-15T15:15:23.145Z,6.1
2022-09-15T15:17:27.592Z,5.6
2022-09-15T15:19:32.655Z,6
2022-09-15T15:21:36.314Z,6
2022-09-15T15:23:25.130Z,6.1
2022-09-15T15:25:27.113Z,5.1
2022-09-15T15:27:41.050Z,4.4
2022-09-15T15:29:41.596Z,5.3
2022-09-15T15:31:27.318Z,5.9
2022-09-15T15:33:27.341Z,6
2022-09-15T15:35:26.104Z,6.7
2022-09-15T15:37:28.186Z,6.9
2022-09-15T15:39:25.852Z,7.3
2022-09-15T15:41:28.110Z,7.5
2022-09-15T15:43:26.338Z,6.9
2022-09-15T15:45:28.689Z,6.2
2022-09-15T15:47:29.892Z,5.9
2022-09-15T15:49:29.523Z,5.7
2022-09-15T15:51:27.196Z,5.2
2022-09-15T15:53:27.562Z,5.3
2022-09-15T15:55:36.146Z,5.4
2022-09-15T15:57:33.364Z,5.4
2022-09-15T15:59:28.056Z,5.3
2022-09-15T16:01:28.354Z,4.7
2022-09-15T16:03:28.709Z,5.3
2022-09-15T16:05:29.196Z,4.8
2022-09-15T16:07:33.332Z,5
2022-09-15T16:09:29.546Z,4.6
2022-09-15T16:11:29.579Z,5.4
2022-09-15T16:13:30.495Z,6.4
2022-09-15T16:15:30.024Z,8.2
2022-09-15T16:17:30.290Z,7.4
2022-09-15T16:19:30.671Z,5
2022-09-15T16:21:34.139Z,6.5
2022-09-15T16:23:31.049Z,6.5
2022-09-15T16:25:37.669Z,6.1
2022-09-15T16:27:31.480Z,5.1
2022-09-15T16:29:31.788Z,4.7
2022-09-15T16:31:32.887Z,5.1
2022-09-15T16:33:37.387Z,5.2
2022-09-15T16:35:37.808Z,5
2022-09-15T16:37:32.670Z,5.1
2022-09-15T16:39:32.957Z,4.8
2022-09-15T16:41:38.484Z,5.5
2022-09-15T16:43:33.424Z,6.4
2022-09-15T16:45:38.258Z,6.4
2022-09-15T16:47:33.906Z,7
2022-09-15T16:49:34.123Z,7.3
2022-09-15T16:51:34.403Z,8.2
2022-09-15T16:53:34.848Z,7.9
2022-09-15T16:55:38.258Z,8
2022-09-15T16:57:35.087Z,8.6
2022-09-15T16:59:35.319Z,10.2
2022-09-15T17:01:35.727Z,10.2
2022-09-15T17:03:35.875Z,9.8
2022-09-15T17:05:38.655Z,10.6
2022-09-15T17:07:36.298Z,10.7
2022-09-15T17:09:36.484Z,10
2022-09-15T17:11:36.877Z,10.6
2022-09-15T17:13:37.181Z,9.1
2022-09-15T17:15:39.816Z,9.8
2022-09-15T17:17:37.541Z,9.1
2022-09-15T17:19:37.727Z,9.6
2022-09-15T17:21:37.991Z,8.7
2022-09-15T17:23:40.527Z,8.6
2022-09-15T17:25:39.303Z,8
2022-09-15T17:27:38.661Z,8.1
2022-09-15T17:29:38.903Z,7.5
2022-09-15T17:31:39.244Z,7.8
2022-09-15T17:33:39.957Z,8.3
2022-09-15T17:35:40.147Z,7.7
2022-09-15T17:37:39.789Z,8.1
2022-09-15T17:39:40.046Z,8.9
2022-09-15T17:41:40.314Z,8.8
2022-09-15T17:43:40.506Z,8.5
2022-09-15T17:45:41.452Z,7.7
2022-09-15T17:47:40.954Z,7.2
2022-09-15T17:49:41.094Z,6.7
2022-09-15T17:51:41.420Z,6.2
2022-09-15T17:53:42.460Z,6.6
2022-09-15T17:55:42.258Z,6.5
2022-09-15T17:57:42.174Z,6.3
2022-09-15T17:59:42.614Z,6.3
2022-09-15T18:01:42.591Z,6
2022-09-15T18:03:43.909Z,5.9
2022-09-15T18:05:43.461Z,6.2
2022-09-15T18:07:43.217Z,6.5
2022-09-15T18:09:43.401Z,7.7
2022-09-15T18:11:43.760Z,6.5
2022-09-15T18:13:43.937Z,6
2022-09-15T18:15:44.513Z,5.9
2022-09-15T18:17:44.364Z,6.1
2022-09-15T18:19:44.565Z,6
2022-09-15T18:21:50.361Z,5.9
2022-09-15T18:23:45.009Z,5.9
2022-09-15T18:25:46.065Z,5.5
2022-09-15T18:27:46.266Z,5.6
2022-09-15T18:29:45.708Z,5.3
2022-09-15T18:31:45.939Z,5.8
2022-09-15T18:33:46.256Z,5.4
2022-09-15T18:35:47.735Z,6
2022-09-15T18:37:47.764Z,5
2022-09-15T18:39:46.928Z,5.2
2022-09-15T18:41:47.024Z,4.9
2022-09-15T18:43:47.260Z,5.1
2022-09-15T18:45:48.411Z,5.1
2022-09-15T18:47:48.686Z,5
2022-09-15T18:49:47.863Z,5
2022-09-15T18:51:51.522Z,5.1
2022-09-15T18:53:53.398Z,5
2022-09-15T18:55:49.103Z,5.3
2022-09-15T18:57:49.332Z,5.1
2022-09-15T18:59:49.027Z,5.1
2022-09-15T19:01:49.366Z,5.3
2022-09-15T19:03:50.105Z,5.9
2022-09-15T19:05:49.639Z,5.2
2022-09-15T19:07:49.937Z,5.5
2022-09-15T19:09:54.355Z,5.5
2022-09-15T19:11:50.247Z,5.6
2022-09-15T19:13:52.090Z,5.9
2022-09-15T19:15:53.400Z,5.8
2022-09-15T19:17:51.281Z,6.2
2022-09-15T19:19:51.116Z,6.2
2022-09-15T19:21:51.425Z,5.9
2022-09-15T19:23:55.680Z,6.2
2022-09-15T19:25:51.853Z,6
2022-09-15T19:27:52.027Z,5.4
2022-09-15T19:29:52.213Z,5.7
2022-09-15T19:31:52.387Z,5.7
2022-09-15T19:33:52.698Z,5.5
2022-09-15T19:36:04.931Z,5.6
2022-09-15T19:37:53.073Z,5.6
2022-09-15T19:39:53.418Z,5.4
2022-09-15T19:41:53.622Z,5.4
2022-09-15T19:43:53.875Z,5.6
2022-09-15T19:45:53.859Z,5.6
2022-09-15T19:47:53.948Z,5.6
2022-09-15T19:49:54.255Z,5.4
2022-09-15T19:51:54.476Z,5.7
2022-09-15T19:53:55.413Z,5.6
2022-09-15T19:55:54.875Z,5.7
2022-09-15T19:57:54.988Z,5.4
2022-09-15T19:59:55.201Z,5.6
2022-09-15T20:01:55.465Z,5.8
2022-09-15T20:05:56.568Z,5.6
2022-09-15T20:07:56.009Z,5.4
2022-09-15T20:09:56.227Z,6.4
2022-09-15T20:11:56.512Z,6.4
2022-09-15T20:13:56.812Z,6.5
2022-09-15T20:15:58.496Z,6.6
2022-09-15T20:17:57.164Z,6.4
2022-09-15T20:19:57.290Z,6.1
2022-09-15T20:21:57.478Z,5.7
2022-09-15T20:23:58.790Z,6.5
2022-09-15T20:25:59.923Z,6.2
2022-09-15T20:27:58.117Z,6.3
2022-09-15T20:29:58.330Z,6.8
2022-09-15T20:31:58.532Z,6.6
2022-09-15T20:33:59.887Z,6.4
2022-09-15T20:36:01.423Z,6.9
2022-09-15T20:37:59.165Z,6.6
2022-09-15T20:39:59.396Z,6.2
2022-09-15T20:41:59.617Z,6.5
2022-09-15T20:44:00.227Z,6.7
2022-09-15T20:46:01.852Z,6.5
2022-09-15T20:48:00.318Z,6.3
2022-09-15T20:50:00.447Z,6.6
2022-09-15T20:52:01.087Z,6.8
2022-09-15T20:54:02.301Z,6.7
2022-09-15T20:56:01.582Z,6.7
2022-09-15T20:58:01.550Z,6.6
2022-09-15T21:00:01.761Z,7
2022-09-15T21:02:01.906Z,7.1
2022-09-15T21:04:02.562Z,7.1
2022-09-15T21:06:05.187Z,7.1
2022-09-15T21:08:02.533Z,6.5
2022-09-15T21:10:02.792Z,7.1
2022-09-15T21:12:02.828Z,6.4
2022-09-15T21:14:03.180Z,7
2022-09-15T21:16:05.881Z,6.7
2022-09-15T21:18:03.780Z,6.7
2022-09-15T21:20:04.213Z,6.8
2022-09-15T21:22:03.916Z,6.4
2022-09-15T21:24:06.327Z,6.5
2022-09-15T21:26:06.390Z,6.9
2022-09-15T21:28:04.358Z,7.3
2022-09-15T21:30:05.628Z,7.2
2022-09-15T21:32:05.217Z,6.8
2022-09-15T21:34:05.008Z,6.9
2022-09-15T21:36:07.846Z,7
2022-09-15T21:38:05.455Z,7
2022-09-15T21:40:06.825Z,6.7
2022-09-15T21:42:06.143Z,6.8
2022-09-15T21:44:06.086Z,7.1
2022-09-15T21:46:10.143Z,6.5
2022-09-15T21:48:06.362Z,6.7
2022-09-15T21:50:07.155Z,6.8
2022-09-15T21:52:06.827Z,7.6
2022-09-15T21:54:07.128Z,7.5
2022-09-15T21:56:08.730Z,7.3
2022-09-15T21:58:07.539Z,7.3
2022-09-15T22:00:09.110Z,7.5
2022-09-15T22:02:07.868Z,8
2022-09-15T22:04:08.840Z,8
2022-09-15T22:06:09.853Z,7.7
2022-09-15T22:08:08.697Z,8.1
2022-09-15T22:10:08.936Z,8.2
2022-09-15T22:12:08.801Z,8.5
2022-09-15T22:14:10.075Z,8.7
2022-09-15T22:16:11.913Z,8.7
2022-09-15T22:18:09.474Z,8.2
2022-09-15T22:20:09.732Z,8.8
2022-09-15T22:22:09.864Z,9.2
2022-09-15T22:24:11.544Z,8.6
2022-09-15T22:26:12.926Z,9.5
2022-09-15T22:28:10.520Z,8.4
2022-09-15T22:30:11.575Z,9.3
2022-09-15T22:32:10.810Z,9.3
2022-09-15T22:34:11.357Z,8.8
2022-09-15T22:36:12.697Z,9.2
2022-09-15T22:38:11.545Z,9
2022-09-15T22:40:11.605Z,9.1
2022-09-15T22:42:11.780Z,9.4
2022-09-15T22:44:18.783Z,9.2
2022-09-15T22:46:12.241Z,9.1
2022-09-15T22:48:12.320Z,8.6
2022-09-15T22:50:12.490Z,8.7
2022-09-15T22:52:12.657Z,9
2022-09-15T22:54:12.990Z,9.2
2022-09-15T22:56:14.986Z,9
2022-09-15T22:58:13.191Z,9.3
2022-09-15T23:00:14.446Z,9.7
2022-09-15T23:02:13.637Z,9.9
2022-09-15T23:04:14.276Z,9.9
2022-09-15T23:06:14.061Z,10.3
2022-09-15T23:08:14.100Z,10.2
2022-09-15T23:10:14.352Z,10.6
2022-09-15T23:12:14.390Z,10.9
2022-09-15T23:14:16.528Z,11.1
2022-09-15T23:16:15.574Z,12.6
2022-09-15T23:18:15.213Z,12.7
2022-09-15T23:20:15.161Z,13.5
2022-09-15T23:22:15.202Z,13.6
2022-09-15T23:24:15.577Z,13.7
2022-09-15T23:26:17.666Z,13.3
2022-09-15T23:28:15.711Z,13.9
2022-09-15T23:30:15.979Z,14.2
2022-09-15T23:32:16.180Z,14.6
2022-09-15T23:34:16.307Z,14.5
2022-09-15T23:36:17.914Z,15.6
2022-09-15T23:38:17.857Z,16.8
2022-09-15T23:40:16.757Z,17
2022-09-15T23:42:18.929Z,16.8
2022-09-15T23:44:16.916Z,16.7
2022-09-15T23:46:17.175Z,17.3
2022-09-15T23:48:17.218Z,16.8
2022-09-15T23:50:17.453Z,16.9
2022-09-15T23:52:17.519Z,16.1
2022-09-15T23:54:17.677Z,16.1
2022-09-15T23:56:17.821Z,15.9
2022-09-15T23:58:18.350Z,15.8
